Airfield :
LOGIN :

Register | Disclaimer

   EN    FR    IT 

 










Legend :    VFR   Marginal VFR   IFR   Intensive IFR   Very Intensive IFR
Visi :
Ceiling :
>= 8 km
>= 3000ft
5 to 8 km
1000 to 3000 ft
1500m to 5 km
500 to 1000 ft
800 to 1500m
200 to 500 ft
< 800m
< 200 ft
Symbols :   Thunderstorms  Fog  Heavy snow  Heavy precipitations  Wind > 20 kt
SIGMETs :     Misc.  Thunderstorms  Icing  Turbulence  Mountain Waves  Volcanic Ashes






- Airport Elevation : 1411 ft
- IATA code : ZHI


LSZG - Grenchen

CURRENT METAR :
  • 280020Z AUTO 00000KT 9999 OVC042 15/10 Q1021

EXPIRED METARs :
  • 272350Z AUTO VRB02KT 9999 BKN045 OVC060 16/10 Q1021
  • 272320Z AUTO 16002KT 9999 SCT045 BKN060 15/11 Q1022
  • 272250Z AUTO 12002KT 9999 SCT042 BKN047 BKN060 15/11 Q1022
  • 272220Z AUTO 11002KT 9999 OVC043 14/12 Q1022
  • 272150Z AUTO VRB02KT 9999 FEW045 OVC075 16/11 Q1022

Expired Forecast.
ATIS : +41 32 396 96 33



MET'MAP, your aeronautical weather chart ! - Copyright ORBIFLY December 2007 - Disclaimer

ORBIFLY MET'MAP TEAM :

Programming & Development : Alexandra Zaïnal
Original concept : Baudouin d'Aumeries
Technical & hardware support : Manuel Goepfert
Assistance : Marc-Olivier Méhu

Contact : metmap@orbifly.com




SOURCES & CREDITS :

   NOAA